Terminal Aerodrome Forecast
Issued by NWS Twin Cities, MN

Home | Current Version | Previous Version | Graphics & Text | Print | Product List | Glossary On
Versions: 1 2 3 4 5 6 7 8 9 10 11 12 13
000
FTUS43 KMPX 210300 AAA
TAFSTC
TAF AMD
KSTC 210310Z 2103/2124 09003KT P6SM BKN250
     FM211200 30008KT P6SM SCT100
     FM211500 32017G24KT P6SM FEW040=

USA.gov is the U.S. government's official web portal to all federal, state and local government web resources and services.